Всё
Horizon Medical Center Airport (Dickson, TN) 7TN6 Погода
There is no TAF data available at 7TN6 or any nearby airports.
There is no METAR data available at 7TN6. Showing METAR data for M02 (5 mi СЗ).
Недавняя история METAR для M02 (для 7TN6 данные отсутствуют)
| Date | Time (CDT) | Flight Rules | Wind Dir. | Speed | Type | Height AGL (ft) | Visibility | Temp (°C) | Temp (°F) | Dew Point (°C) | Dew Point (°F) | Rel. Humid. | Pressure | Density Altitude | Remarks |
|---|---|---|---|---|---|---|---|---|---|---|---|---|---|---|---|
| 04-май | 15:35 | VFR | 230° | 15 kt | 10 miles | 26° | 78° | 9° | 48° | 34% | 29.84 in Hg | 2,292 ft | |||
| 04-май | 15:15 | VFR | 210° | 15 kt | 10 miles | 26° | 78° | 9° | 48° | 34% | 29.84 in Hg | 2,292 ft | Wind gusting to 20 KT | ||
| 04-май | 14:55 | VFR | 230° | 14 kt | 10 miles | 26° | 78° | 9° | 48° | 34% | 29.86 in Hg | 2,272 ft | Wind gusting to 26 KT | ||
| 04-май | 14:15 | VFR | 240° | 12 kt | 10 miles | 26° | 78° | 10° | 50° | 37% | 29.87 in Hg | 2,262 ft | Wind gusting to 19 KT | ||
| 04-май | 13:55 | VFR | 220° | 14 kt | 10 miles | 25° | 77° | 9° | 48° | 36% | 29.88 in Hg | 2,132 ft | Wind gusting to 22 KT | ||
| 04-май | 13:35 | VFR | 240° | 12 kt | 10 miles | 25° | 77° | 10° | 50° | 39% | 29.88 in Hg | 2,132 ft | Wind gusting to 19 KT | ||
| 04-май | 13:15 | VFR | 210° | 16 kt | 10 miles | 25° | 77° | 10° | 50° | 39% | 29.89 in Hg | 2,122 ft | |||
| 04-май | 12:55 | VFR | 230° | 11 kt | 10 miles | 25° | 77° | 10° | 50° | 39% | 29.89 in Hg | 2,122 ft | Wind gusting to 16 KT | ||
| 04-май | 12:35 | VFR | 240° | 11 kt | 10 miles | 25° | 77° | 11° | 51° | 41% | 29.90 in Hg | 2,112 ft | Wind gusting to 17 KT | ||
| 04-май | 12:15 | VFR | 230° | 11 kt | 10 miles | 24° | 75° | 10° | 50° | 41% | 29.90 in Hg | 1,992 ft | Wind gusting to 17 KT | ||
| 04-май | 11:55 | VFR | 240° | 12 kt | 10 miles | 24° | 75° | 10° | 50° | 41% | 29.91 in Hg | 1,982 ft | |||
| 04-май | 11:15 | VFR | 260° | 10 kt | 10 miles | 23° | 73° | 10° | 50° | 44% | 29.93 in Hg | 1,842 ft | Wind gusting to 15 KT | ||
| 04-май | 10:55 | VFR | 220° | 13 kt | 10 miles | 23° | 73° | 10° | 50° | 44% | 29.93 in Hg | 1,842 ft | Wind gusting to 19 KT | ||
| 04-май | 10:15 | VFR | 240° | 11 kt | 10 miles | 22° | 71° | 10° | 50° | 46% | 29.93 in Hg | 1,722 ft | |||
| 04-май | 09:55 | VFR | 230° | 11 kt | 10 miles | 21° | 69° | 10° | 50° | 49% | 29.94 in Hg | 1,592 ft | |||
| 04-май | 09:35 | VFR | 230° | 11 kt | 10 miles | 20° | 68° | 10° | 50° | 53% | 29.94 in Hg | 1,472 ft | |||
| 04-май | 09:15 | VFR | 240° | 10 kt | 10 miles | 19° | 66° | 10° | 50° | 56% | 29.94 in Hg | 1,352 ft | Wind gusting to 16 KT | ||
| 04-май | 08:55 | VFR | 210° | 11 kt | 10 miles | 17° | 62° | 9° | 48° | 59% | 29.94 in Hg | 1,112 ft | |||
| 04-май | 08:35 | VFR | 220° | 13 kt | 10 miles | 16° | 60° | 9° | 48° | 63% | 29.94 in Hg | 992 ft | |||
| 04-май | 08:15 | VFR | 220° | 9 kt | 10 miles | 15° | 59° | 8° | 46° | 63% | 29.94 in Hg | 872 ft | Wind gusting to 16 KT | ||
| 04-май | 07:55 | VFR | 220° | 10 kt | 10 miles | 14° | 57° | 8° | 46° | 67% | 29.94 in Hg | 752 ft | |||
| 04-май | 07:35 | VFR | 220° | 8 kt | 10 miles | 14° | 57° | 7° | 44° | 63% | 29.94 in Hg | 752 ft | |||
| 04-май | 07:15 | VFR | 220° | 7 kt | 10 miles | 13° | 55° | 7° | 44° | 67% | 29.93 in Hg | 642 ft | |||
| 04-май | 06:55 | VFR | 220° | 8 kt | 10 miles | 13° | 55° | 6° | 42° | 62% | 29.94 in Hg | 632 ft |
Вход
| Ваш браузер не поддерживается.. обновите веб-браузер |
